Time;durP1;ratioP1;P1;durP2;ratioP2;P2;SDS_P1;SDS_P2;PMS_P1;PMS_P2;Temp;Humidity;BMP_temperature;BMP_pressure;BME280_temperature;BME280_humidity;BME280_pressure;Samples;Min_cycle;Max_cycle;Signal;HPM_P1;HPM_P2
2022/11/20 00:01:34;;;;;;;0.20;0.20;;;-3.50;99.90;-5.80;95074.00;;;;5043734;28;20199;-73
2022/11/20 00:04:03;;;;;;;0.20;0.20;;;-3.50;99.90;-5.70;95091.00;;;;5044424;28;20260;-74
2022/11/20 00:06:31;;;;;;;0.20;0.20;;;-3.40;99.90;-5.70;95122.00;;;;5043494;28;20602;-74
2022/11/20 00:09:01;;;;;;;0.20;0.20;;;-3.30;99.90;-5.70;95112.00;;;;5040825;28;20669;-75
2022/11/20 00:11:31;;;;;;;0.20;0.20;;;-3.30;99.90;-5.60;95102.00;;;;5043919;28;20194;-74
2022/11/20 00:14:02;;;;;;;0.20;0.20;;;-3.30;99.90;-5.70;95139.00;;;;5034885;28;20577;-74
2022/11/20 00:16:34;;;;;;;0.20;0.20;;;-3.30;99.90;-5.50;95234.00;;;;5043593;28;20264;-74
2022/11/20 00:19:02;;;;;;;0.20;0.20;;;-3.20;99.90;-5.50;95160.00;;;;5042330;28;20198;-74
2022/11/20 00:21:31;;;;;;;0.20;0.20;;;-3.20;99.90;-5.50;95132.00;;;;5044141;28;20198;-74
2022/11/20 00:23:59;;;;;;;0.20;0.20;;;-3.20;99.90;-5.40;95051.00;;;;5040093;28;20214;-73
2022/11/20 00:26:29;;;;;;;0.20;0.20;;;-3.10;99.90;-5.50;95179.00;;;;5046928;28;20255;-74
2022/11/20 00:29:01;;;;;;;0.20;0.20;;;-3.10;99.90;-5.50;95139.00;;;;5041780;28;20264;-75
2022/11/20 00:31:30;;;;;;;0.20;0.20;;;-3.10;99.90;-5.50;95135.00;;;;5028754;28;20198;-75
2022/11/20 00:33:59;;;;;;;0.20;0.20;;;-3.10;99.90;-5.50;95225.00;;;;5038949;28;20226;-74
2022/11/20 00:36:32;;;;;;;0.20;0.20;;;-3.10;99.90;-5.50;95172.00;;;;5032707;28;20223;-74
2022/11/20 00:39:00;;;;;;;0.20;0.20;;;-3.20;99.90;-5.60;95113.00;;;;5029193;28;20203;-74
2022/11/20 00:41:30;;;;;;;0.20;0.20;;;-3.20;99.90;-5.50;95119.00;;;;5035257;28;20553;-74
2022/11/20 00:43:59;;;;;;;0.20;0.20;;;-3.20;99.90;-5.40;95105.00;;;;5040100;28;20283;-74
2022/11/20 00:46:29;;;;;;;0.20;0.20;;;-3.10;99.90;-5.40;95152.00;;;;5038811;28;20209;-73
2022/11/20 00:48:58;;;;;;;0.20;0.20;;;-3.10;99.90;-5.30;95163.00;;;;5036058;28;20257;-73
2022/11/20 00:51:28;;;;;;;0.20;0.20;;;-3.00;99.90;-5.20;95465.00;;;;5031141;28;20206;-74
2022/11/20 00:53:57;;;;;;;0.20;0.20;;;-2.90;99.90;-5.20;95261.00;;;;5040994;28;20214;-73
2022/11/20 00:56:25;;;;;;;0.20;0.20;;;-2.90;99.90;-5.10;95271.00;;;;5040847;28;20218;-74
2022/11/20 00:58:54;;;;;;;0.20;0.20;;;-2.80;99.90;-5.20;95258.00;;;;5043930;28;20381;-75
2022/11/20 01:01:24;;;;;;;0.20;0.20;;;-2.80;99.90;-5.30;95263.00;;;;5031742;28;20370;-74
2022/11/20 01:03:55;;;;;;;0.20;0.20;;;-2.90;99.90;-5.30;95269.00;;;;5046647;28;20273;-77
2022/11/20 01:06:28;;;;;;;0.20;0.20;;;-2.90;99.90;-5.30;95277.00;;;;5044415;28;20206;-77
2022/11/20 01:08:58;;;;;;;0.20;0.20;;;-2.80;99.90;-5.20;95347.00;;;;5038767;28;20191;-77
2022/11/20 01:11:29;;;;;;;0.20;0.20;;;-2.80;99.90;-5.30;95194.00;;;;5040522;28;20612;-77
2022/11/20 01:14:01;;;;;;;0.20;0.20;;;-2.80;99.90;-5.80;95250.00;;;;5037994;28;20231;-76
2022/11/20 01:16:33;;;;;;;0.20;0.20;;;-2.90;99.90;-5.40;95215.00;;;;5043616;28;20700;-77
2022/11/20 01:19:05;;;;;;;0.20;0.20;;;-2.90;99.90;-5.30;95280.00;;;;5035255;28;20200;-77
2022/11/20 01:21:37;;;;;;;0.20;0.20;;;-2.90;99.90;-5.40;95209.00;;;;5048730;28;20251;-78
2022/11/20 01:24:08;;;;;;;0.20;0.20;;;-3.00;99.90;-5.40;95250.00;;;;5040628;28;20222;-78
2022/11/20 01:26:40;;;;;;;0.20;0.20;;;-3.00;99.90;-5.50;95257.00;;;;5047661;28;20207;-78
2022/11/20 01:29:13;;;;;;;0.20;0.20;;;-3.20;99.90;-5.60;95218.00;;;;5044908;28;20210;-78
2022/11/20 01:31:42;;;;;;;0.20;0.20;;;-3.30;99.90;-5.70;95215.00;;;;5042305;28;20206;-78
2022/11/20 01:34:14;;;;;;;0.20;0.20;;;-3.30;99.90;-5.70;95227.00;;;;5035459;28;20226;-78
2022/11/20 01:36:45;;;;;;;0.25;0.25;;;-3.30;99.90;-5.70;95243.00;;;;5049391;28;20218;-78
2022/11/20 01:39:17;;;;;;;0.30;0.30;;;-3.40;99.90;-6.00;95321.00;;;;5038046;28;20229;-78
2022/11/20 01:44:57;;;;;;;0.20;0.20;;;-3.30;99.90;-5.80;95203.00;;;;5055656;28;20304;-77
2022/11/20 01:47:34;;;;;;;0.20;0.20;;;-3.40;99.90;-5.90;95281.00;;;;5042511;28;20208;-77
2022/11/20 01:50:15;;;;;;;0.30;0.30;;;-3.40;99.90;-5.90;95344.00;;;;5029236;28;20195;-78
2022/11/20 01:52:51;;;;;;;0.20;0.20;;;-3.50;99.90;-6.00;95190.00;;;;5033586;28;20223;-78
2022/11/20 01:55:25;;;;;;;0.30;0.30;;;-3.50;99.90;-6.00;95085.00;;;;5031953;28;20257;-78
2022/11/20 01:57:54;;;;;;;0.30;0.30;;;-3.60;99.90;-6.00;95022.00;;;;5042674;28;20214;-77
2022/11/20 02:00:22;;;;;;;0.20;0.20;;;-3.60;99.90;-6.10;95052.00;;;;5036468;28;20194;-77
2022/11/20 02:02:55;;;;;;;0.20;0.20;;;-3.70;99.90;-6.20;95040.00;;;;5045226;28;20635;-78
2022/11/20 02:05:30;;;;;;;0.22;0.22;;;-3.90;99.90;-6.20;95103.00;;;;5046314;28;20203;-77
2022/11/20 02:08:01;;;;;;;0.20;0.20;;;-3.90;99.90;-6.20;95085.00;;;;5042616;28;20186;-76
2022/11/20 02:10:30;;;;;;;0.30;0.30;;;-4.00;99.90;-6.00;95253.00;;;;5044371;28;20210;-76
2022/11/20 02:15:44;;;;;;;0.20;0.20;;;-3.60;99.90;-6.00;95044.00;;;;5028390;28;20273;-76
2022/11/20 02:18:15;;;;;;;0.20;0.20;;;-3.60;99.90;-5.90;95177.00;;;;5047724;28;20713;-77
2022/11/20 02:20:47;;;;;;;0.20;0.20;;;-3.60;99.90;-5.90;95023.00;;;;5056082;28;20228;-77
2022/11/20 02:23:29;;;;;;;0.20;0.20;;;-3.60;99.90;-5.80;95060.00;;;;5048741;28;20249;-77
2022/11/20 02:26:00;;;;;;;0.30;0.30;;;-3.60;99.90;-5.80;95116.00;;;;5057484;28;20202;-76
2022/11/20 02:28:28;;;;;;;0.20;0.20;;;-3.50;99.90;-5.80;95210.00;;;;5040879;28;20276;-77
2022/11/20 02:30:57;;;;;;;0.22;0.22;;;-3.60;99.90;-5.60;95271.00;;;;5074491;28;20654;-78
2022/11/20 02:33:25;;;;;;;0.20;0.20;;;-3.40;99.90;-5.50;95179.00;;;;5048654;28;20268;-77
2022/11/20 02:35:53;;;;;;;0.20;0.20;;;-3.30;99.90;-5.60;95092.00;;;;5054547;28;20241;-77
2022/11/20 02:38:22;;;;;;;0.20;0.20;;;-3.40;99.90;-5.60;95140.00;;;;5042480;28;20222;-78
2022/11/20 02:40:50;;;;;;;0.30;0.30;;;-3.30;99.90;-5.60;95415.00;;;;5037619;28;20615;-78
2022/11/20 02:43:24;;;;;;;0.30;0.30;;;-3.40;99.90;-5.60;95161.00;;;;5043344;28;20609;-78
2022/11/20 02:45:52;;;;;;;0.30;0.30;;;-3.30;99.90;-5.60;95170.00;;;;5041860;28;20198;-78
2022/11/20 02:48:20;;;;;;;0.20;0.20;;;-3.30;99.90;-5.40;95408.00;;;;5045263;28;20207;-78
2022/11/20 02:50:51;;;;;;;0.20;0.20;;;-3.20;99.90;-5.20;95195.00;;;;5040668;28;20245;-76
2022/11/20 02:53:19;;;;;;;0.20;0.20;;;-3.10;99.90;-5.00;95260.00;;;;5045713;28;20218;-76
2022/11/20 02:55:47;;;;;;;0.20;0.20;;;-2.90;99.90;-4.80;95381.00;;;;5033251;28;20195;-76
2022/11/20 02:58:15;;;;;;;0.20;0.20;;;-2.70;99.90;-4.70;95282.00;;;;5037391;28;20288;-79
2022/11/20 03:00:45;;;;;;;0.20;0.20;;;-2.60;99.90;-4.50;95281.00;;;;5042315;28;20218;-78
2022/11/20 03:03:13;;;;;;;0.20;0.20;;;-2.40;99.90;-4.50;95248.00;;;;5042314;28;20235;-78
2022/11/20 03:05:41;;;;;;;0.20;0.20;;;-2.40;99.90;-4.50;95290.00;;;;5040571;28;20198;-79
2022/11/20 03:08:09;;;;;;;0.20;0.20;;;-2.40;99.90;-4.50;95280.00;;;;5041652;28;20195;-77
2022/11/20 03:10:37;;;;;;;0.20;0.20;;;-2.30;99.90;-4.40;95307.00;;;;5042465;28;20206;-77
2022/11/20 03:13:05;;;;;;;0.20;0.20;;;-2.20;99.90;-4.30;95350.00;;;;5039357;28;20290;-78
2022/11/20 03:15:33;;;;;;;0.20;0.20;;;-2.10;99.90;-4.40;95400.00;;;;5033562;28;20187;-78
2022/11/20 03:18:03;;;;;;;0.20;0.20;;;-2.20;99.90;-4.30;95380.00;;;;5048937;28;20234;-79
2022/11/20 03:20:32;;;;;;;0.20;0.20;;;-2.10;99.90;-4.30;95195.00;;;;5047030;28;20209;-79
2022/11/20 03:23:01;;;;;;;0.20;0.20;;;-2.00;99.90;-4.30;95284.00;;;;5055250;28;20226;-79
2022/11/20 03:25:29;;;;;;;0.20;0.20;;;-2.00;99.90;-4.20;95223.00;;;;5057395;28;20225;-79
2022/11/20 03:27:57;;;;;;;0.20;0.20;;;-1.90;99.90;-4.20;95227.00;;;;5060656;28;20194;-78
2022/11/20 03:30:25;;;;;;;0.20;0.20;;;-2.00;99.90;-4.20;95244.00;;;;5059633;28;20198;-78
2022/11/20 03:32:57;;;;;;;0.20;0.20;;;-2.00;99.90;-4.10;95236.00;;;;5043898;28;20227;-78
2022/11/20 03:35:27;;;;;;;0.20;0.20;;;-1.90;99.90;-4.10;95260.00;;;;5054380;28;20194;-79
2022/11/20 03:37:55;;;;;;;0.20;0.20;;;-1.90;99.90;-4.00;95252.00;;;;5054695;28;20214;-78
2022/11/20 03:40:23;;;;;;;0.20;0.20;;;-1.80;99.90;-3.90;95264.00;;;;5038575;28;20207;-77
2022/11/20 03:42:51;;;;;;;0.20;0.20;;;-1.70;99.90;-3.80;95303.00;;;;5038521;28;20214;-78
2022/11/20 03:45:20;;;;;;;0.20;0.20;;;-1.60;99.90;-3.80;95328.00;;;;5040843;28;20207;-77
2022/11/20 03:47:48;;;;;;;0.20;0.20;;;-1.60;99.90;-3.80;95389.00;;;;5034668;28;20265;-77
2022/11/20 03:50:16;;;;;;;0.20;0.20;;;-1.70;99.90;-3.70;95461.00;;;;5041870;28;20205;-79
2022/11/20 03:52:46;;;;;;;0.20;0.20;;;-1.60;99.90;-3.80;95397.00;;;;5037124;28;20227;-78
2022/11/20 03:55:14;;;;;;;0.10;0.10;;;-1.60;99.90;-3.80;95432.00;;;;5040069;28;20207;-77
2022/11/20 03:57:42;;;;;;;0.20;0.20;;;-1.60;99.90;-3.80;95305.00;;;;5039442;28;20257;-78
2022/11/20 04:00:12;;;;;;;0.20;0.20;;;-1.60;99.90;-3.80;95336.00;;;;5040043;28;20203;-78
2022/11/20 04:02:40;;;;;;;0.10;0.10;;;-1.60;99.90;-3.70;95436.00;;;;5042164;28;20241;-78
2022/11/20 04:05:09;;;;;;;0.20;0.20;;;-1.60;99.90;-3.70;95347.00;;;;5038967;28;20252;-79
2022/11/20 04:07:37;;;;;;;0.20;0.20;;;-1.60;99.90;-3.70;95275.00;;;;5041826;28;20195;-80
2022/11/20 04:10:08;;;;;;;0.20;0.20;;;-1.60;99.90;-3.70;95266.00;;;;5038765;28;20193;-79
2022/11/20 04:12:36;;;;;;;0.20;0.20;;;-1.60;99.90;-3.70;95094.00;;;;5029658;28;20257;-79
2022/11/20 04:15:05;;;;;;;0.20;0.20;;;-1.60;99.90;-3.70;95094.00;;;;5046771;28;20611;-80
2022/11/20 04:17:33;;;;;;;0.10;0.10;;;-1.60;99.90;-3.80;95086.00;;;;5036614;28;20199;-78
2022/11/20 04:20:01;;;;;;;0.20;0.20;;;-1.60;99.90;-3.60;95275.00;;;;5041659;28;20277;-78
2022/11/20 04:22:29;;;;;;;0.20;0.20;;;-1.50;99.90;-3.70;95002.00;;;;5049226;28;20198;-78
2022/11/20 04:24:57;;;;;;;0.20;0.20;;;-1.60;99.90;-3.60;95128.00;;;;5032032;28;20199;-78
2022/11/20 04:27:27;;;;;;;0.20;0.20;;;-1.50;99.90;-3.60;95295.00;;;;5036143;28;20202;-77
2022/11/20 04:29:55;;;;;;;0.10;0.10;;;-1.50;99.90;-3.60;95188.00;;;;5037867;28;20253;-78
2022/11/20 04:32:23;;;;;;;0.20;0.20;;;-1.50;99.90;-3.60;95033.00;;;;5040471;28;20191;-78
2022/11/20 04:34:51;;;;;;;0.20;0.20;;;-1.50;99.90;-3.50;95204.00;;;;5045858;28;20605;-78
2022/11/20 04:37:19;;;;;;;0.20;0.20;;;-1.40;99.90;-3.50;95125.00;;;;5032778;28;20209;-78
2022/11/20 04:39:47;;;;;;;0.20;0.20;;;-1.40;99.90;-3.50;95141.00;;;;5037280;28;20283;-78
2022/11/20 04:42:31;;;;;;;0.20;0.20;;;-1.40;99.90;-3.60;94998.00;;;;5031111;28;20206;-78
2022/11/20 04:45:00;;;;;;;0.20;0.20;;;-1.50;99.90;-3.60;94938.00;;;;5042537;28;20198;-77
2022/11/20 04:47:28;;;;;;;0.20;0.20;;;-1.50;99.90;-3.50;95045.00;;;;5046241;28;20689;-77
2022/11/20 04:49:56;;;;;;;0.20;0.20;;;-1.40;99.90;-3.50;95088.00;;;;5045457;28;20584;-77
2022/11/20 04:52:24;;;;;;;0.20;0.20;;;-1.40;99.90;-3.50;95053.00;;;;5046920;28;20204;-79
2022/11/20 04:54:53;;;;;;;0.20;0.20;;;-1.40;99.90;-3.50;95102.00;;;;5036852;28;20195;-79
2022/11/20 04:57:21;;;;;;;0.20;0.20;;;-1.30;99.90;-3.40;94976.00;;;;5046413;28;20224;-77
2022/11/20 04:59:49;;;;;;;0.20;0.20;;;-1.30;99.90;-3.50;94961.00;;;;5040547;28;20229;-77
2022/11/20 05:02:19;;;;;;;0.20;0.20;;;-1.30;99.90;-3.40;94950.00;;;;5038415;28;20225;-79
2022/11/20 05:04:48;;;;;;;0.20;0.20;;;-1.30;99.90;-3.40;94897.00;;;;5048786;28;20198;-78
2022/11/20 05:07:18;;;;;;;0.20;0.20;;;-1.30;99.90;-3.40;94851.00;;;;5036097;28;20659;-78
2022/11/20 05:09:46;;;;;;;0.20;0.20;;;-1.30;99.90;-3.30;95022.00;;;;5045774;28;20230;-76
2022/11/20 05:12:14;;;;;;;0.10;0.10;;;-1.20;99.90;-3.30;94863.00;;;;5057669;28;20202;-78
2022/11/20 05:14:42;;;;;;;0.10;0.10;;;-1.20;99.90;-3.30;94851.00;;;;5049510;28;20194;-78
2022/11/20 05:17:12;;;;;;;0.20;0.20;;;-1.20;99.90;-3.20;95059.00;;;;5039881;28;20205;-78
2022/11/20 05:19:41;;;;;;;0.20;0.20;;;-1.10;99.90;-3.20;95064.00;;;;5034651;28;20690;-77
2022/11/20 05:22:09;;;;;;;0.20;0.20;;;-1.10;99.90;-3.10;95104.00;;;;5045154;28;20190;-76
2022/11/20 05:24:37;;;;;;;0.20;0.20;;;-1.10;99.90;-3.10;95038.00;;;;5048314;28;20215;-76
2022/11/20 05:27:05;;;;;;;0.17;0.17;;;-1.10;99.90;-3.10;94753.00;;;;5034280;28;20199;-77
2022/11/20 05:29:34;;;;;;;0.20;0.20;;;-1.00;99.90;-3.10;94891.00;;;;5040627;28;20256;-75
2022/11/20 05:32:02;;;;;;;0.20;0.20;;;-1.00;99.90;-3.00;94841.00;;;;5045401;28;20202;-75
2022/11/20 05:34:30;;;;;;;0.20;0.20;;;-1.00;99.90;-3.00;94835.00;;;;5043921;28;20226;-77
2022/11/20 05:37:01;;;;;;;0.10;0.10;;;-0.90;99.90;-3.00;94809.00;;;;5037392;28;20205;-77
2022/11/20 05:39:29;;;;;;;0.20;0.20;;;-0.90;99.90;-2.90;94904.00;;;;5039259;28;20701;-76
2022/11/20 05:44:39;;;;;;;0.20;0.20;;;-0.80;99.90;-2.90;94940.00;;;;5052244;28;20218;-77
2022/11/20 05:47:07;;;;;;;0.10;0.10;;;-0.80;99.90;-2.90;94918.00;;;;5035123;28;20601;-78
2022/11/20 05:49:35;;;;;;;0.17;0.17;;;-0.90;99.90;-2.90;94945.00;;;;5035450;28;20200;-76
2022/11/20 05:52:05;;;;;;;0.20;0.20;;;-0.90;99.90;-2.90;94987.00;;;;5037644;28;20326;-76
2022/11/20 05:54:33;;;;;;;0.20;0.20;;;-0.90;99.90;-2.90;95006.00;;;;5040133;28;20215;-76
2022/11/20 05:57:01;;;;;;;0.10;0.10;;;-0.80;99.90;-2.80;94972.00;;;;5039642;28;20251;-77
2022/11/20 05:59:29;;;;;;;0.10;0.10;;;-0.80;99.90;-2.80;95051.00;;;;5039893;28;20223;-77
2022/11/20 06:01:57;;;;;;;0.20;0.20;;;-0.80;99.90;-2.80;95022.00;;;;5041263;28;20263;-75
2022/11/20 06:04:26;;;;;;;0.20;0.20;;;-0.70;99.90;-2.80;95064.00;;;;5044617;28;20229;-75
2022/11/20 06:06:54;;;;;;;0.20;0.20;;;-0.70;99.90;-2.70;94910.00;;;;5036414;28;20207;-75
2022/11/20 06:09:23;;;;;;;0.10;0.10;;;-0.60;99.90;-2.60;95204.00;;;;5038157;28;20718;-75
2022/11/20 06:11:51;;;;;;;0.20;0.20;;;-0.60;99.90;-2.70;95131.00;;;;5034012;28;20195;-74
2022/11/20 06:14:19;;;;;;;0.20;0.20;;;-0.60;99.90;-2.70;95029.00;;;;5034078;28;20215;-74
2022/11/20 06:16:48;;;;;;;0.20;0.20;;;-0.60;99.90;-2.70;95012.00;;;;5035509;28;20210;-74
2022/11/20 06:19:16;;;;;;;0.20;0.20;;;-0.60;99.90;-2.60;94981.00;;;;5040736;28;20305;-74
2022/11/20 06:21:44;;;;;;;0.10;0.10;;;-0.60;99.90;-2.60;94874.00;;;;5034709;28;20254;-77
2022/11/20 06:24:12;;;;;;;0.20;0.20;;;-0.60;99.90;-2.60;94853.00;;;;5041410;28;20312;-77
2022/11/20 06:26:42;;;;;;;0.20;0.20;;;-0.50;99.90;-2.60;94881.00;;;;5033016;28;20253;-76
2022/11/20 06:29:10;;;;;;;0.20;0.20;;;-0.50;99.90;-2.50;94915.00;;;;5037184;28;20214;-76
2022/11/20 06:31:38;;;;;;;0.10;0.10;;;-0.50;99.90;-2.50;94936.00;;;;5040960;28;20221;-76
2022/11/20 06:34:07;;;;;;;0.20;0.20;;;-0.40;99.90;-2.50;94921.00;;;;5043439;28;20218;-77
2022/11/20 06:36:35;;;;;;;0.20;0.20;;;-0.40;99.90;-2.40;94908.00;;;;5039773;28;20198;-76
2022/11/20 06:39:04;;;;;;;0.20;0.20;;;-0.40;99.90;-2.50;94718.00;;;;5037489;28;20222;-77
2022/11/20 06:41:32;;;;;;;0.10;0.10;;;-0.40;99.90;-2.50;94917.00;;;;5034337;28;20704;-76
2022/11/20 06:44:02;;;;;;;0.17;0.17;;;-0.40;99.90;-2.40;94965.00;;;;5035614;28;20211;-75
2022/11/20 06:46:30;;;;;;;0.10;0.10;;;-0.40;99.90;-2.40;95053.00;;;;5041060;28;20667;-75
2022/11/20 06:48:58;;;;;;;0.17;0.17;;;-0.40;99.90;-2.40;95124.00;;;;5037674;28;20690;-76
2022/11/20 06:51:26;;;;;;;0.10;0.10;;;-0.40;99.90;-2.40;95107.00;;;;5034977;28;20199;-76
2022/11/20 06:53:55;;;;;;;0.20;0.20;;;-0.40;99.90;-2.30;95179.00;;;;5038362;28;20215;-76
2022/11/20 06:56:23;;;;;;;0.20;0.20;;;-0.30;99.90;-2.30;95048.00;;;;5044428;28;20263;-77
2022/11/20 06:58:51;;;;;;;0.20;0.20;;;-0.30;99.90;-2.40;94936.00;;;;5037169;28;20261;-76
2022/11/20 07:01:20;;;;;;;0.20;0.20;;;-0.30;99.90;-2.30;95009.00;;;;5039602;28;20281;-77
2022/11/20 07:03:51;;;;;;;0.20;0.20;;;-0.30;99.90;-2.30;95103.00;;;;5032636;28;20306;-77
2022/11/20 07:06:21;;;;;;;0.10;0.10;;;-0.30;99.90;-2.30;94845.00;;;;5033282;28;20194;-78
2022/11/20 07:08:52;;;;;;;0.10;0.10;;;-0.30;99.90;-2.30;94933.00;;;;5044254;28;20202;-78
2022/11/20 07:11:20;;;;;;;0.10;0.10;;;-0.20;99.90;-2.30;95002.00;;;;5026715;28;20260;-78
2022/11/20 07:13:52;;;;;;;0.20;0.20;;;-0.30;99.90;-2.30;94712.00;;;;5038803;28;20218;-76
2022/11/20 07:16:21;;;;;;;0.10;0.10;;;-0.30;99.90;-2.30;94675.00;;;;5025942;28;20547;-77
2022/11/20 07:18:49;;;;;;;0.20;0.20;;;-0.30;99.90;-2.30;94702.00;;;;5032428;28;20245;-75
2022/11/20 07:21:18;;;;;;;0.10;0.10;;;-0.20;99.90;-2.40;94709.00;;;;5040005;28;20256;-75
2022/11/20 07:23:46;;;;;;;0.20;0.20;;;-0.30;99.90;-2.30;94770.00;;;;5043244;28;20281;-75
2022/11/20 07:26:15;;;;;;;0.20;0.20;;;-0.30;99.90;-2.30;94947.00;;;;5033077;28;20669;-75
2022/11/20 07:28:46;;;;;;;0.20;0.20;;;-0.30;99.90;-2.30;94966.00;;;;5037985;28;20929;-75
2022/11/20 07:31:14;;;;;;;0.20;0.20;;;-0.30;99.90;-2.20;94923.00;;;;5044208;28;20613;-75
2022/11/20 07:33:48;;;;;;;0.20;0.20;;;-0.20;99.90;-2.10;95000.00;;;;5039737;28;20306;-75
2022/11/20 07:36:16;;;;;;;0.10;0.10;;;-0.10;99.90;-2.10;94926.00;;;;5045677;28;20195;-75
2022/11/20 07:38:44;;;;;;;0.10;0.10;;;-0.10;99.90;-2.10;95030.00;;;;5025001;28;20199;-75
2022/11/20 07:41:12;;;;;;;0.17;0.17;;;-0.10;99.90;-2.10;94969.00;;;;5043279;28;20230;-76
2022/11/20 07:43:40;;;;;;;0.15;0.15;;;-0.10;99.90;-2.10;94840.00;;;;5039728;28;20265;-76
2022/11/20 07:46:08;;;;;;;0.20;0.20;;;-0.10;99.90;-2.10;94770.00;;;;5046128;28;20229;-75
2022/11/20 07:48:37;;;;;;;0.10;0.10;;;-0.10;99.90;-2.00;94850.00;;;;5046029;28;20194;-76
2022/11/20 07:51:06;;;;;;;0.20;0.20;;;0.00;99.90;-2.10;94990.00;;;;5052040;28;20202;-75
2022/11/20 07:53:34;;;;;;;0.10;0.10;;;-0.10;99.90;-2.10;94808.00;;;;5051971;28;20704;-75
2022/11/20 07:56:04;;;;;;;0.20;0.20;;;-0.10;99.90;-2.00;94837.00;;;;5052146;28;20190;-75
2022/11/20 07:58:34;;;;;;;0.10;0.10;;;0.10;99.90;-1.90;94855.00;;;;5051983;28;20735;-75
2022/11/20 08:01:06;;;;;;;0.10;0.10;;;0.10;99.90;-2.00;94709.00;;;;5052074;28;20772;-75
2022/11/20 08:03:37;;;;;;;0.20;0.20;;;0.00;99.90;-2.00;94936.00;;;;5052079;28;20222;-75
2022/11/20 08:06:08;;;;;;;0.10;0.10;;;0.00;99.90;-1.90;95010.00;;;;5053335;28;20194;-75
2022/11/20 08:08:36;;;;;;;0.20;0.20;;;0.00;99.90;-1.90;94900.00;;;;5054226;28;20187;-75
2022/11/20 08:14:13;;;;;;;0.10;0.10;;;0.10;99.90;-1.80;94761.00;;;;5051799;28;20263;-75
2022/11/20 08:16:43;;;;;;;0.20;0.20;;;0.20;99.90;-1.70;94757.00;;;;5052054;28;20273;-75
2022/11/20 08:19:13;;;;;;;0.10;0.10;;;0.20;99.90;-1.70;94656.00;;;;5051675;28;20198;-75
2022/11/20 08:21:43;;;;;;;0.10;0.10;;;0.30;99.90;-1.60;94778.00;;;;5051335;28;20221;-75
2022/11/20 08:24:12;;;;;;;0.20;0.20;;;0.40;99.90;-1.60;94841.00;;;;5051588;28;20581;-75
2022/11/20 08:26:41;;;;;;;0.20;0.20;;;0.40;99.90;-1.60;94908.00;;;;5051744;28;20684;-75
2022/11/20 08:29:09;;;;;;;0.20;0.20;;;0.40;99.90;-1.50;94841.00;;;;5051222;28;20202;-74
2022/11/20 08:31:39;;;;;;;0.20;0.20;;;0.40;99.90;-1.50;94901.00;;;;5051719;28;20297;-75
2022/11/20 08:34:07;;;;;;;0.10;0.10;;;0.50;99.90;-1.50;94904.00;;;;5051769;28;20700;-74
2022/11/20 08:36:37;;;;;;;0.20;0.20;;;0.40;99.90;-1.50;94876.00;;;;5051722;28;20194;-75
2022/11/20 08:39:06;;;;;;;0.20;0.20;;;0.50;99.90;-1.50;94926.00;;;;5051241;28;20190;-75
2022/11/20 08:41:36;;;;;;;0.20;0.20;;;0.50;99.90;-1.40;95030.00;;;;5051485;28;20222;-75
2022/11/20 08:44:07;;;;;;;0.10;0.10;;;0.50;99.90;-1.80;94828.00;;;;5051367;28;20285;-74
2022/11/20 08:46:38;;;;;;;0.20;0.20;;;0.60;99.90;-1.50;94810.00;;;;5051541;28;20202;-74
2022/11/20 08:49:08;;;;;;;0.10;0.10;;;0.50;99.90;-1.50;94808.00;;;;5051261;28;20195;-74
2022/11/20 08:51:37;;;;;;;0.10;0.10;;;0.50;99.90;-1.40;94834.00;;;;5050202;28;20213;-74
2022/11/20 08:54:07;;;;;;;0.13;0.13;;;0.50;99.90;-1.40;94860.00;;;;5051220;28;20713;-75
2022/11/20 08:56:36;;;;;;;0.10;0.10;;;0.60;99.90;-1.40;94899.00;;;;5051567;28;20198;-75
2022/11/20 08:59:05;;;;;;;0.10;0.10;;;0.60;99.90;-1.40;94860.00;;;;5051050;28;20190;-75
2022/11/20 09:01:53;;;;;;;0.10;0.10;;;0.60;99.90;-1.30;95191.00;;;;5051344;28;20210;-75
2022/11/20 09:04:21;;;;;;;0.10;0.10;;;0.60;99.90;-1.20;95392.00;;;;5051122;28;20630;-75
2022/11/20 09:06:50;;;;;;;0.10;0.10;;;0.70;99.90;-1.20;95278.00;;;;5051312;28;20190;-75
2022/11/20 09:09:20;;;;;;;0.20;0.20;;;0.70;99.90;-1.10;95282.00;;;;5051014;28;20206;-75
2022/11/20 09:11:49;;;;;;;0.10;0.10;;;0.80;99.90;-1.10;95110.00;;;;5051298;28;20199;-75
2022/11/20 09:14:18;;;;;;;0.20;0.20;;;0.80;99.90;-0.90;95188.00;;;;5052017;28;20210;-75
2022/11/20 09:16:46;;;;;;;0.10;0.10;;;0.90;99.90;-1.00;95164.00;;;;5052165;28;20211;-75
2022/11/20 09:19:17;;;;;;;0.10;0.10;;;1.00;99.90;-0.80;95305.00;;;;5051125;28;20194;-74
2022/11/20 09:22:05;;;;;;;0.10;0.10;;;1.00;99.90;-0.80;95190.00;;;;5050948;28;20319;-75
2022/11/20 09:24:35;;;;;;;0.10;0.10;;;1.00;99.90;-0.80;95190.00;;;;5050901;28;20206;-75
2022/11/20 09:27:05;;;;;;;0.10;0.10;;;1.00;99.90;-0.80;95258.00;;;;5051000;28;20191;-75
2022/11/20 09:29:33;;;;;;;0.10;0.10;;;1.10;99.90;-0.80;95180.00;;;;5051093;28;20233;-75
2022/11/20 09:32:01;;;;;;;0.15;0.15;;;1.10;99.90;-0.70;95205.00;;;;5051385;28;20198;-75
2022/11/20 09:34:29;;;;;;;0.10;0.10;;;1.10;99.90;-0.80;95242.00;;;;5054686;28;20214;-75
2022/11/20 09:36:57;;;;;;;0.20;0.20;;;1.10;99.90;-0.80;95114.00;;;;5054604;28;20260;-75
2022/11/20 09:39:31;;;;;;;0.10;0.10;;;1.10;99.90;-0.80;95117.00;;;;5054542;28;20258;-75
2022/11/20 09:42:33;;;;;;;0.10;0.10;;;1.20;99.90;-0.70;95112.00;;;;5054516;28;20222;-75
2022/11/20 09:45:21;;;;;;;0.10;0.10;;;1.20;99.90;-0.80;95056.00;;;;5053412;28;20224;-75
2022/11/20 09:48:05;;;;;;;0.10;0.10;;;1.20;99.90;-0.70;95131.00;;;;5054087;28;20191;-75
2022/11/20 09:50:40;;;;;;;0.10;0.10;;;1.20;99.90;-0.60;95181.00;;;;5054552;28;20595;-75
2022/11/20 09:53:24;;;;;;;0.20;0.20;;;1.30;99.90;-0.60;95145.00;;;;5054314;28;20728;-75
2022/11/20 09:55:53;;;;;;;0.10;0.10;;;1.30;99.90;-0.50;95096.00;;;;5054473;28;20562;-73
2022/11/20 09:58:34;;;;;;;0.10;0.10;;;1.30;99.90;-0.50;95184.00;;;;5054119;28;20245;-76
2022/11/20 10:01:12;;;;;;;0.10;0.10;;;1.30;99.90;-0.50;95269.00;;;;5054259;28;20210;-76
2022/11/20 10:03:54;;;;;;;0.10;0.10;;;1.40;99.90;-0.50;95247.00;;;;5054264;28;20635;-76
2022/11/20 10:06:31;;;;;;;0.10;0.10;;;1.40;99.90;-0.50;95132.00;;;;5054192;28;20731;-76
2022/11/20 10:09:19;;;;;;;0.10;0.10;;;1.40;99.90;-0.50;95176.00;;;;5053879;28;20186;-75
2022/11/20 10:11:55;;;;;;;0.10;0.10;;;1.40;99.90;-0.40;95233.00;;;;5054142;28;20190;-75
2022/11/20 10:14:39;;;;;;;0.10;0.10;;;1.50;99.90;-0.40;95135.00;;;;5054399;28;20217;-75
2022/11/20 10:17:24;;;;;;;0.10;0.10;;;1.50;99.90;-0.40;95128.00;;;;5054380;28;20198;-75
2022/11/20 10:20:16;;;;;;;0.10;0.10;;;1.50;99.90;-0.20;95213.00;;;;5054548;28;20186;-75
2022/11/20 10:23:07;;;;;;;0.10;0.10;;;1.60;99.90;-0.10;95187.00;;;;5053662;28;20263;-75
2022/11/20 10:25:40;;;;;;;0.10;0.10;;;1.70;99.90;-0.10;95069.00;;;;5053825;28;20199;-75
2022/11/20 10:28:29;;;;;;;0.20;0.20;;;1.80;99.90;0.00;95225.00;;;;5053253;28;20658;-74
2022/11/20 10:31:08;;;;;;;0.10;0.10;;;1.80;99.90;-0.10;95259.00;;;;5053850;28;20208;-75
2022/11/20 10:33:42;;;;;;;0.10;0.10;;;2.00;99.90;0.40;95192.00;;;;5053584;28;20616;-76
2022/11/20 10:36:37;;;;;;;0.10;0.10;;;2.10;99.90;0.50;95238.00;;;;5053772;28;20733;-76
2022/11/20 10:39:17;;;;;;;0.10;0.10;;;2.20;99.90;0.50;95135.00;;;;5053437;28;20194;-76
2022/11/20 10:41:52;;;;;;;0.10;0.10;;;2.30;99.90;0.40;95244.00;;;;5054874;28;20284;-76
2022/11/20 10:47:13;;;;;;;0.10;0.10;;;2.20;99.90;0.40;95194.00;;;;5053735;28;20190;-76
2022/11/20 10:49:44;;;;;;;0.10;0.10;;;2.20;99.90;0.40;95070.00;;;;5053158;28;20252;-76
2022/11/20 10:52:26;;;;;;;0.10;0.10;;;2.20;99.90;0.60;95779.00;;;;5053313;28;20199;-76
2022/11/20 10:55:02;;;;;;;0.10;0.10;;;2.20;99.90;0.70;96058.00;;;;5053095;28;20182;-76
2022/11/20 10:57:52;;;;;;;0.10;0.10;;;2.20;99.90;0.70;96072.00;;;;5052932;28;20225;-76
2022/11/20 11:00:21;;;;;;;0.10;0.10;;;2.10;99.90;0.60;96065.00;;;;5053150;28;20182;-76
2022/11/20 11:02:52;;;;;;;0.13;0.13;;;2.10;99.90;0.80;96196.00;;;;5052785;28;20280;-76
2022/11/20 11:05:37;;;;;;;0.10;0.10;;;2.10;99.90;0.70;96185.00;;;;5053094;28;20194;-76
2022/11/20 11:08:11;;;;;;;0.10;0.10;;;2.10;99.90;0.80;96173.00;;;;5052875;28;20193;-75
2022/11/20 11:10:48;;;;;;;0.10;0.10;;;2.20;99.90;0.80;96168.00;;;;5053057;28;20216;-76
2022/11/20 11:13:25;;;;;;;0.10;0.10;;;2.20;99.90;0.80;96184.00;;;;5053354;28;20228;-76
2022/11/20 11:15:54;;;;;;;0.10;0.10;;;2.20;99.90;0.80;96160.00;;;;5052968;28;20182;-76
2022/11/20 11:18:29;;;;;;;0.10;0.10;;;2.20;99.90;0.90;96185.00;;;;5052451;28;20190;-76
2022/11/20 11:21:01;;;;;;;0.10;0.10;;;2.20;99.90;1.00;96157.00;;;;5052791;28;20190;-76
2022/11/20 11:23:36;;;;;;;0.10;0.10;;;2.30;99.90;1.00;96158.00;;;;5052640;28;20218;-76
2022/11/20 11:26:07;;;;;;;0.10;0.10;;;2.30;99.90;1.00;96156.00;;;;5052504;28;20186;-76
2022/11/20 11:28:35;;;;;;;0.10;0.10;;;2.40;99.90;1.10;96171.00;;;;5052668;28;20202;-76